Time;durP1;ratioP1;P1;durP2;ratioP2;P2;SDS_P1;SDS_P2;PMS_P1;PMS_P2;Temp;Humidity;BMP_temperature;BMP_pressure;BME280_temperature;BME280_humidity;BME280_pressure;Samples;Min_cycle;Max_cycle;Signal;HPM_P1;HPM_P2
2022/06/16 00:01:44;;;;;;;;;8.25;7.75;;;;;-146.67;27.26;73647.50;5080050;28;61790;-78
2022/06/16 00:04:10;;;;;;;;;8.25;4.50;;;;;-146.67;27.67;73655.50;5082249;28;61747;-77
2022/06/16 00:06:36;;;;;;;;;7.75;6.25;;;;;-146.67;27.88;73665.47;5081856;28;62800;-77
2022/06/16 00:09:01;;;;;;;;;7.00;5.75;;;;;-146.67;28.04;73667.47;5081705;27;61758;-77
2022/06/16 00:11:27;;;;;;;;;5.50;5.50;;;;;-146.67;27.79;73671.47;5082079;28;61806;-78
2022/06/16 00:13:52;;;;;;;;;9.50;7.00;;;;;-146.67;28.07;73685.44;5081848;28;61819;-77
2022/06/16 00:16:19;;;;;;;;;6.75;6.00;;;;;-146.67;27.87;73689.44;5080030;27;62435;-77
2022/06/16 00:18:45;;;;;;;;;6.50;6.50;;;;;-146.67;27.94;73707.41;5081884;27;61723;-77
2022/06/16 00:21:11;;;;;;;;;5.50;5.50;;;;;-146.67;27.95;73717.38;5081662;28;61884;-77
2022/06/16 00:23:38;;;;;;;;;7.75;6.50;;;;;-146.67;28.07;73723.38;5082385;27;61739;-77
2022/06/16 00:26:04;;;;;;;;;8.00;5.25;;;;;-146.67;28.00;73731.34;5080947;27;61948;-78
2022/06/16 00:28:29;;;;;;;;;7.00;7.00;;;;;-146.67;28.40;73743.31;5081945;28;61984;-78
2022/06/16 00:31:04;;;;;;;;;7.00;5.75;;;;;-146.67;28.23;73757.31;5081055;27;61971;-78
2022/06/16 00:33:30;;;;;;;;;7.50;5.50;;;;;-146.67;28.38;73767.28;5082416;27;61972;-77
2022/06/16 00:35:55;;;;;;;;;8.50;7.50;;;;;-146.67;28.52;73773.28;5079408;28;63875;-77
2022/06/16 00:38:21;;;;;;;;;7.25;6.00;;;;;-146.67;28.90;73801.22;5081488;27;61783;-77
2022/06/16 00:40:46;;;;;;;;;6.25;6.00;;;;;-146.67;28.87;73815.19;5080034;28;61911;-77
2022/06/16 00:43:12;;;;;;;;;8.75;7.50;;;;;-146.67;29.18;73815.19;5081801;27;61786;-77
2022/06/16 00:45:48;;;;;;;;;6.75;6.00;;;;;-146.67;28.42;73821.19;5080429;27;61836;-77
2022/06/16 00:48:17;;;;;;;;;7.00;5.25;;;;;-146.67;28.89;73831.16;5081737;27;61876;-77
2022/06/16 00:50:47;;;;;;;;;6.75;6.00;;;;;-146.67;28.99;73839.13;5081229;27;61747;-77
2022/06/16 00:53:12;;;;;;;;;8.50;6.50;;;;;-146.67;29.06;73847.13;5097349;27;61955;-78
2022/06/16 00:55:39;;;;;;;;;6.00;6.00;;;;;-146.67;28.61;73847.13;5080940;28;62344;-77
2022/06/16 00:58:04;;;;;;;;;7.25;5.00;;;;;-146.67;29.16;73861.09;5081630;28;61735;-77
2022/06/16 01:00:40;;;;;;;;;7.00;5.50;;;;;-146.67;29.21;73871.06;5080670;27;61645;-77
2022/06/16 01:03:05;;;;;;;;;7.25;7.25;;;;;-146.67;29.49;73883.06;5114396;27;62009;-77
2022/06/16 01:05:30;;;;;;;;;7.25;7.25;;;;;-146.67;29.10;73891.03;5096640;27;63605;-77
2022/06/16 01:07:57;;;;;;;;;8.25;5.75;;;;;-146.67;29.64;73903.00;5080985;27;61913;-77
2022/06/16 01:10:31;;;;;;;;;5.75;5.75;;;;;-146.67;29.29;73907.00;5081389;27;61941;-77
2022/06/16 01:13:41;;;;;;;;;7.75;7.75;;;;;-146.67;29.17;73911.00;5079892;28;62139;-77
2022/06/16 01:16:19;;;;;;;;;7.00;7.00;;;;;-146.67;29.55;73924.97;5080305;27;62027;-77
2022/06/16 01:19:29;;;;;;;;;5.75;5.50;;;;;-146.67;29.29;73942.94;5079692;28;61960;-77
2022/06/16 01:22:01;;;;;;;;;5.00;5.00;;;;;-146.67;29.47;73911.00;5080699;28;61735;-77
2022/06/16 01:25:07;;;;;;;;;7.75;7.75;;;;;-146.67;29.12;73918.97;5081622;28;61889;-77
2022/06/16 01:27:36;;;;;;;;;6.00;5.75;;;;;-146.67;29.35;73915.00;5080816;28;63821;-77
2022/06/16 01:30:08;;;;;;;;;11.25;8.25;;;;;-146.67;29.39;73917.00;5083957;27;61874;-77
2022/06/16 01:32:59;;;;;;;;;7.00;7.00;;;;;-146.67;29.49;73917.00;5084275;27;62335;-77
2022/06/16 01:35:36;;;;;;;;;7.00;6.00;;;;;-146.67;29.45;73922.97;5083319;28;61766;-77
2022/06/16 01:38:01;;;;;;;;;8.00;5.00;;;;;-146.67;29.70;73915.00;5083771;27;61715;-77
2022/06/16 01:40:46;;;;;;;;;7.00;7.00;;;;;-146.67;29.52;73922.97;5084079;27;61822;-77
2022/06/16 01:43:29;;;;;;;;;7.50;7.50;;;;;-146.67;29.74;73930.97;5084175;28;61687;-77
2022/06/16 01:46:12;;;;;;;;;13.00;8.00;;;;;-146.67;29.74;73928.97;5082730;28;61988;-77
2022/06/16 01:48:43;;;;;;;;;7.75;7.00;;;;;-146.67;29.49;73950.94;5082381;28;63602;-77
2022/06/16 01:51:13;;;;;;;;;6.00;6.00;;;;;-146.67;29.71;73964.91;5083952;28;61840;-77
2022/06/16 01:53:49;;;;;;;;;9.00;8.00;;;;;-146.67;29.80;73952.91;5084372;28;61830;-77
2022/06/16 01:56:25;;;;;;;;;9.50;8.25;;;;;-146.67;29.69;73974.88;5083872;28;61698;-76
2022/06/16 01:58:58;;;;;;;;;9.00;8.25;;;;;-146.67;29.94;73986.84;5082184;28;65125;-77
2022/06/16 02:01:30;;;;;;;;;6.75;6.75;;;;;-146.67;30.12;74000.81;5083375;28;61730;-77
2022/06/16 02:04:03;;;;;;;;;8.00;8.00;;;;;-146.67;29.91;74012.81;5084296;28;61872;-77
2022/06/16 02:06:36;;;;;;;;;9.75;7.00;;;;;-146.67;30.21;74026.78;5084254;28;61851;-77
2022/06/16 02:09:09;;;;;;;;;12.50;8.00;;;;;-146.67;30.33;74020.78;5083359;27;61852;-77
2022/06/16 02:11:36;;;;;;;;;10.00;9.00;;;;;-146.67;29.83;74034.75;5083782;28;61913;-77
2022/06/16 02:14:08;;;;;;;;;8.50;7.50;;;;;-146.67;30.42;74044.75;5084102;28;61889;-77
2022/06/16 02:16:35;;;;;;;;;6.00;6.00;;;;;-146.67;30.66;74034.75;5083565;28;61771;-77
2022/06/16 02:19:05;;;;;;;;;10.25;9.00;;;;;-146.67;30.20;74026.78;5083390;28;61701;-77
2022/06/16 02:21:40;;;;;;;;;8.00;7.50;;;;;-146.67;30.51;74030.78;5078667;28;61778;-77
2022/06/16 02:24:12;;;;;;;;;6.50;5.75;;;;;-146.67;30.40;74026.78;5062030;28;62064;-77
2022/06/16 02:26:37;;;;;;;;;9.50;7.00;;;;;-146.67;30.38;74036.75;5063463;28;61784;-77
2022/06/16 02:29:19;;;;;;;;;9.50;6.75;;;;;-146.67;30.91;74062.72;5061334;28;63691;-77
2022/06/16 02:31:56;;;;;;;;;7.75;7.75;;;;;-146.67;30.71;74062.72;5095784;27;61958;-77
2022/06/16 02:34:40;;;;;;;;;13.00;8.25;;;;;-146.67;30.52;74068.69;5063002;28;61795;-77
2022/06/16 02:37:47;;;;;;;;;6.25;6.25;;;;;-146.67;30.34;74084.66;5063451;28;61670;-76
2022/06/16 02:40:41;;;;;;;;;10.25;9.75;;;;;-146.67;30.51;74092.66;5038169;28;61833;-77
2022/06/16 02:43:29;;;;;;;;;10.50;8.50;;;;;-146.67;31.20;74100.63;5040424;28;61818;-77
2022/06/16 02:46:00;;;;;;;;;10.00;10.00;;;;;-146.67;30.85;74112.63;5041314;28;62063;-77
2022/06/16 02:48:38;;;;;;;;;12.00;9.50;;;;;-146.67;30.63;74108.63;5043795;28;61955;-77
2022/06/16 02:51:11;;;;;;;;;8.75;8.75;;;;;-146.67;31.40;74134.56;5059738;28;62006;-77
2022/06/16 02:54:10;;;;;;;;;8.75;8.75;;;;;-146.67;31.13;74126.59;5060320;28;61932;-77
2022/06/16 02:57:07;;;;;;;;;10.75;9.50;;;;;-146.67;30.66;74120.59;5000017;28;62281;-77
2022/06/16 02:59:41;;;;;;;;;8.50;8.50;;;;;-146.67;31.01;74124.59;4984021;28;61875;-77
2022/06/16 03:02:11;;;;;;;;;8.00;8.00;;;;;-146.67;30.94;74130.59;4999955;28;62099;-77
2022/06/16 03:04:46;;;;;;;;;11.00;7.50;;;;;-146.67;30.54;74132.56;4999667;28;62104;-77
2022/06/16 03:07:13;;;;;;;;;14.00;8.50;;;;;-146.67;30.74;74148.56;4999998;28;62034;-77
2022/06/16 03:09:39;;;;;;;;;9.75;9.75;;;;;-146.67;31.04;74140.56;5000193;28;62391;-77
2022/06/16 03:12:07;;;;;;;;;11.75;10.00;;;;;-146.67;30.68;74142.56;4999564;28;62225;-77
2022/06/16 03:14:33;;;;;;;;;7.75;7.75;;;;;-146.67;30.86;74150.53;4999903;28;61802;-77
2022/06/16 03:16:58;;;;;;;;;8.00;8.00;;;;;-146.67;30.83;74150.53;5018017;28;61998;-77
2022/06/16 03:19:24;;;;;;;;;14.75;12.00;;;;;-146.67;31.09;74210.44;5040127;28;61830;-77
2022/06/16 03:21:50;;;;;;;;;10.50;8.50;;;;;-146.67;31.59;74232.41;5039156;28;62033;-77
2022/06/16 03:24:16;;;;;;;;;10.50;9.50;;;;;-146.67;31.47;74254.34;5056525;28;62311;-77
2022/06/16 03:26:41;;;;;;;;;8.75;8.75;;;;;-146.67;32.21;74254.34;5056274;28;62314;-77
2022/06/16 03:29:07;;;;;;;;;9.50;8.00;;;;;-146.67;31.90;74250.38;5056754;28;61939;-77
2022/06/16 03:31:33;;;;;;;;;9.75;9.75;;;;;-146.67;32.24;74270.31;5048531;28;62783;-77
2022/06/16 03:33:58;;;;;;;;;10.50;10.25;;;;;-146.67;32.10;74280.31;5082814;28;62092;-77
2022/06/16 03:36:24;;;;;;;;;10.50;9.25;;;;;-146.67;32.22;74266.34;5082560;28;61838;-77
2022/06/16 03:38:49;;;;;;;;;12.25;8.00;;;;;-146.67;31.93;74262.34;5082557;28;61869;-77
2022/06/16 03:41:15;;;;;;;;;11.50;8.50;;;;;-146.67;32.19;74274.31;5081588;28;61855;-77
2022/06/16 03:43:40;;;;;;;;;11.00;8.25;;;;;-146.67;31.94;74308.25;5082326;28;61743;-77
2022/06/16 03:46:07;;;;;;;;;12.50;9.25;;;;;-146.67;32.58;74316.25;5082215;28;62127;-77
2022/06/16 03:48:32;;;;;;;;;12.00;10.00;;;;;-146.67;32.41;74320.22;5077430;28;61811;-77
2022/06/16 03:50:58;;;;;;;;;11.50;10.00;;;;;-146.67;32.36;74332.22;5060349;28;61773;-77
2022/06/16 03:53:24;;;;;;;;;12.75;9.75;;;;;-146.67;32.33;74316.25;5061646;28;61837;-77
2022/06/16 03:55:50;;;;;;;;;9.25;9.25;;;;;-146.67;32.39;74322.22;5061950;28;61716;-77
2022/06/16 03:58:16;;;;;;;;;11.75;10.25;;;;;-146.67;32.04;74334.22;5062635;28;61898;-77
2022/06/16 04:00:42;;;;;;;;;15.25;12.00;;;;;-146.67;32.19;74340.19;5060369;28;61894;-77
2022/06/16 04:05:52;;;;;;;;;11.50;11.25;;;;;-146.67;32.14;74344.19;5061802;28;61978;-77
2022/06/16 04:08:19;;;;;;;;;12.25;10.50;;;;;-146.67;32.20;74360.16;5062929;27;61799;-77
2022/06/16 04:10:45;;;;;;;;;12.00;11.00;;;;;-146.67;31.99;74368.16;5081059;28;62796;-77
2022/06/16 04:13:11;;;;;;;;;13.25;8.25;;;;;-146.67;32.65;74372.13;5081927;28;62001;-77
2022/06/16 04:15:37;;;;;;;;;11.50;6.75;;;;;-146.67;32.78;74364.16;5081746;27;61837;-77
2022/06/16 04:18:03;;;;;;;;;12.25;10.50;;;;;-146.67;32.52;74334.22;5082034;28;61782;-77
2022/06/16 04:20:29;;;;;;;;;10.25;10.25;;;;;-146.67;32.01;74334.22;5080955;27;61915;-77
2022/06/16 04:22:54;;;;;;;;;8.25;8.25;;;;;-146.67;32.47;74346.19;5081573;27;61743;-77
2022/06/16 04:25:23;;;;;;;;;10.50;10.50;;;;;-146.67;32.42;74350.19;5081997;27;62024;-77
2022/06/16 04:27:49;;;;;;;;;8.75;8.00;;;;;-146.67;32.30;74354.16;5082119;27;61815;-77
2022/06/16 04:30:16;;;;;;;;;11.25;9.50;;;;;-146.67;32.27;74382.13;5081141;27;62575;-77
2022/06/16 04:32:43;;;;;;;;;10.00;8.25;;;;;-146.67;32.58;74388.09;5081232;27;61902;-77
2022/06/16 04:35:09;;;;;;;;;10.00;9.75;;;;;-146.67;32.52;74396.09;5080322;28;61940;-77
2022/06/16 04:37:35;;;;;;;;;9.75;9.75;;;;;-146.67;32.37;74396.09;5081693;27;62029;-77
2022/06/16 04:40:01;;;;;;;;;8.50;8.00;;;;;-146.67;32.72;74398.09;5081112;27;61705;-77
2022/06/16 04:42:26;;;;;;;;;9.75;9.75;;;;;-146.67;32.79;74394.09;5081726;27;61924;-77
2022/06/16 04:44:52;;;;;;;;;8.75;8.75;;;;;-146.67;32.58;74394.09;5079865;28;61762;-77
2022/06/16 04:47:17;;;;;;;;;11.00;7.25;;;;;-146.67;32.19;74392.09;5080199;28;62031;-77
2022/06/16 04:49:48;;;;;;;;;6.75;6.75;;;;;-146.67;32.80;74386.13;5081119;28;62304;-77
2022/06/16 04:52:15;;;;;;;;;10.50;9.25;;;;;-146.67;32.59;74388.09;5081384;28;61961;-77
2022/06/16 04:54:46;;;;;;;;;12.25;12.25;;;;;-146.67;32.33;74374.13;5081009;28;61884;-77
2022/06/16 04:57:12;;;;;;;;;10.00;8.00;;;;;-146.67;32.27;74348.19;5080464;28;61817;-77
2022/06/16 04:59:37;;;;;;;;;11.25;9.75;;;;;-146.67;32.14;74356.16;5080804;28;61757;-77
2022/06/16 05:02:03;;;;;;;;;10.25;8.50;;;;;-146.67;32.00;74354.16;5082045;28;61972;-77
2022/06/16 05:04:28;;;;;;;;;9.25;9.00;;;;;-146.67;31.65;74364.16;5085206;28;61717;-77
2022/06/16 05:06:55;;;;;;;;;10.50;9.50;;;;;-146.67;32.04;74372.13;5084353;28;62035;-77
2022/06/16 05:09:21;;;;;;;;;8.25;8.00;;;;;-146.67;31.56;74356.16;5078234;27;62806;-77
2022/06/16 05:11:46;;;;;;;;;8.00;8.00;;;;;-146.67;32.36;74378.13;5073422;28;61824;-77
2022/06/16 05:14:12;;;;;;;;;11.50;9.25;;;;;-146.67;31.90;74376.13;5085098;27;61839;-76
2022/06/16 05:16:37;;;;;;;;;11.75;11.75;;;;;-146.67;31.79;74368.16;5084375;27;61884;-76
2022/06/16 05:19:03;;;;;;;;;13.00;10.00;;;;;-146.67;31.73;74364.16;5083800;27;61746;-79
2022/06/16 05:21:28;;;;;;;;;13.25;11.25;;;;;-146.67;31.97;74358.16;5084557;27;62025;-79
2022/06/16 05:23:54;;;;;;;;;14.25;13.25;;;;;-146.67;31.76;74342.19;5084470;28;61822;-79
2022/06/16 05:26:19;;;;;;;;;15.50;14.00;;;;;-146.67;32.51;74370.16;5084848;27;62149;-79
2022/06/16 05:28:44;;;;;;;;;7.50;7.50;;;;;-146.67;31.34;74352.19;5083930;27;61844;-79
2022/06/16 05:31:10;;;;;;;;;13.50;12.50;;;;;-146.67;32.10;74342.19;5084044;27;62003;-79
2022/06/16 05:33:36;;;;;;;;;13.25;9.25;;;;;-146.67;31.58;74316.25;5084864;27;62020;-79
2022/06/16 05:36:08;;;;;;;;;12.25;9.00;;;;;-146.67;31.04;74268.31;5082509;28;61781;-78
2022/06/16 05:38:34;;;;;;;;;9.00;9.00;;;;;-146.67;30.46;74196.47;5083622;27;61674;-77
2022/06/16 05:41:12;;;;;;;;;10.75;10.75;;;;;-146.67;30.00;74128.59;5083688;27;61811;-78
2022/06/16 05:43:37;;;;;;;;;16.50;11.25;;;;;-146.67;29.63;74068.69;5083629;27;61828;-79
2022/06/16 05:46:05;;;;;;;;;12.00;10.50;;;;;-146.67;29.32;74044.75;5083792;27;61946;-77
2022/06/16 05:48:30;;;;;;;;;12.00;11.00;;;;;-146.67;29.21;73996.84;5083241;27;61765;-77
2022/06/16 05:51:05;;;;;;;;;11.00;10.00;;;;;-146.67;28.91;73982.88;5082321;28;61951;-77
2022/06/16 05:53:31;;;;;;;;;10.00;9.25;;;;;-146.67;28.67;73944.94;5084475;27;61742;-76
2022/06/16 05:55:56;;;;;;;;;12.00;11.25;;;;;-146.67;28.95;73990.84;5083777;27;61753;-76
2022/06/16 05:58:21;;;;;;;;;15.75;12.00;;;;;-146.67;28.73;73950.94;5083411;27;61812;-76
2022/06/16 06:00:47;;;;;;;;;12.50;11.50;;;;;-146.67;28.54;73960.91;5081469;28;61968;-79
2022/06/16 06:03:13;;;;;;;;;10.75;10.75;;;;;-146.67;28.72;73972.88;5082676;28;62450;-79
2022/06/16 06:05:38;;;;;;;;;12.00;9.00;;;;;-146.67;28.89;73968.88;5081690;28;61810;-78
2022/06/16 06:16:35;;;;;;;;;11.50;11.00;;;;;-146.67;29.07;74030.78;5081457;28;62023;-78
2022/06/16 06:19:24;;;;;;;;;15.00;11.50;;;;;-146.67;28.77;74036.75;5080454;28;61722;-78
2022/06/16 06:21:58;;;;;;;;;14.25;13.00;;;;;-146.67;29.16;74024.78;5107939;27;62080;-78
2022/06/16 06:24:25;;;;;;;;;13.00;11.75;;;;;-146.67;29.15;74016.78;5083889;27;61879;-79
2022/06/16 06:26:51;;;;;;;;;16.25;14.00;;;;;-146.67;27.84;73873.06;5079804;28;62499;-77
2022/06/16 06:29:16;;;;;;;;;10.00;10.00;;;;;-146.67;27.92;73823.16;5082558;28;61847;-78
2022/06/16 06:31:42;;;;;;;;;16.75;14.50;;;;;-146.67;27.64;73835.16;5080154;28;61880;-77
2022/06/16 06:34:07;;;;;;;;;16.50;12.50;;;;;-146.67;27.89;73883.06;5082850;28;62553;-78
2022/06/16 06:36:33;;;;;;;;;10.00;10.00;;;;;-146.67;28.18;73909.00;5083063;28;61782;-77
2022/06/16 06:38:58;;;;;;;;;10.50;9.00;;;;;-146.67;28.46;73934.94;5082863;27;62663;-77
2022/06/16 06:41:23;;;;;;;;;12.00;8.50;;;;;-146.67;28.43;73942.94;5081991;27;61830;-76
2022/06/16 06:43:49;;;;;;;;;11.00;9.50;;;;;-146.67;28.79;73962.91;5083844;27;62266;-76
2022/06/16 06:46:14;;;;;;;;;11.00;9.25;;;;;-146.67;28.64;73980.88;5082378;27;61810;-77
2022/06/16 06:48:40;;;;;;;;;11.25;10.00;;;;;-146.67;28.64;73996.84;5082455;27;61955;-76
2022/06/16 06:51:05;;;;;;;;;15.00;13.25;;;;;-146.67;28.38;74002.81;5082540;27;61808;-77
2022/06/16 06:53:31;;;;;;;;;12.00;11.25;;;;;-146.67;28.61;74008.81;5081673;28;61809;-76
2022/06/16 06:55:56;;;;;;;;;11.50;9.25;;;;;-146.67;28.56;74006.81;5082901;27;61980;-76
2022/06/16 06:58:23;;;;;;;;;9.75;8.75;;;;;-146.67;28.50;74018.78;5082385;27;61753;-76
2022/06/16 07:00:53;;;;;;;;;12.00;9.75;;;;;-146.67;28.78;74018.78;5082327;27;61913;-76
2022/06/16 07:03:20;;;;;;;;;13.25;10.00;;;;;-146.67;28.76;74018.78;5082518;27;61844;-76
2022/06/16 07:05:45;;;;;;;;;10.50;8.75;;;;;-146.67;28.30;74034.75;5081836;27;61890;-76
2022/06/16 07:08:11;;;;;;;;;6.25;6.25;;;;;-146.67;28.58;74034.75;5080644;27;61825;-76
2022/06/16 07:10:36;;;;;;;;;12.75;9.00;;;;;-146.67;28.18;74038.75;5080875;28;61795;-76
2022/06/16 07:13:02;;;;;;;;;8.75;8.25;;;;;-146.67;28.50;74052.72;5081165;27;62313;-75
2022/06/16 07:15:28;;;;;;;;;13.75;10.25;;;;;-146.67;28.37;74048.75;5081097;27;62003;-76
2022/06/16 07:17:54;;;;;;;;;9.50;6.50;;;;;-146.67;28.38;74050.72;5081181;27;61839;-76
2022/06/16 07:20:19;;;;;;;;;8.50;8.50;;;;;-146.67;28.28;74044.75;5082062;27;61755;-76
2022/06/16 07:22:46;;;;;;;;;7.50;7.00;;;;;-146.67;27.98;74048.75;5082452;28;62036;-76
2022/06/16 07:25:14;;;;;;;;;6.50;6.00;;;;;-146.67;28.24;74042.75;5082798;27;61830;-76
2022/06/16 07:27:39;;;;;;;;;7.50;6.50;;;;;-146.67;28.10;74028.78;5080977;28;63861;-75
2022/06/16 07:30:14;;;;;;;;;9.75;8.25;;;;;-146.67;27.83;74032.75;5082605;28;61906;-76
2022/06/16 07:32:43;;;;;;;;;4.50;4.50;;;;;-146.67;27.96;74032.75;5082438;27;62227;-76
2022/06/16 07:35:10;;;;;;;;;8.75;8.00;;;;;-146.67;27.87;74026.78;5081329;28;61863;-75
2022/06/16 07:37:36;;;;;;;;;10.75;8.00;;;;;-146.67;27.69;74026.78;5081923;28;61982;-76
2022/06/16 07:40:03;;;;;;;;;8.00;5.00;;;;;-146.67;27.68;74022.78;5082372;27;61855;-76
2022/06/16 07:42:29;;;;;;;;;9.25;7.00;;;;;-146.67;27.42;74024.78;5082070;27;62045;-76
2022/06/16 07:44:54;;;;;;;;;7.00;7.00;;;;;-146.67;27.39;74028.78;5082698;27;62929;-77
2022/06/16 07:47:20;;;;;;;;;9.00;6.00;;;;;-146.67;27.62;74026.78;5080972;27;62478;-75
2022/06/16 07:49:48;;;;;;;;;6.75;6.75;;;;;-146.67;27.36;74030.78;5082448;28;61874;-76
2022/06/16 07:52:15;;;;;;;;;8.00;5.75;;;;;-146.67;27.53;74040.75;5080765;28;61932;-76
2022/06/16 07:54:40;;;;;;;;;7.25;6.00;;;;;-146.67;27.48;74030.78;5082243;28;62359;-76
2022/06/16 07:57:06;;;;;;;;;9.00;6.00;;;;;-146.67;27.34;74014.81;5081829;28;61998;-76
2022/06/16 07:59:31;;;;;;;;;6.75;4.50;;;;;-146.67;27.25;74008.81;5081888;28;61977;-76
2022/06/16 08:01:57;;;;;;;;;9.00;7.00;;;;;-146.67;26.97;74014.81;5081991;27;61806;-75
2022/06/16 08:04:23;;;;;;;;;6.50;6.50;;;;;-146.67;27.02;74024.78;5082473;28;62057;-76
2022/06/16 08:06:49;;;;;;;;;5.75;5.75;;;;;-146.67;26.96;74016.78;5081867;28;61886;-76
2022/06/16 08:09:14;;;;;;;;;5.50;5.00;;;;;-146.67;26.65;74006.81;5081906;28;62400;-76
2022/06/16 08:14:24;;;;;;;;;4.00;4.00;;;;;-146.67;26.54;73998.84;5081940;28;61778;-76
2022/06/16 08:16:50;;;;;;;;;4.75;3.50;;;;;-146.67;26.45;74008.81;5080658;28;61736;-76
2022/06/16 08:19:15;;;;;;;;;6.50;4.25;;;;;-146.67;26.33;74008.81;5080692;28;62131;-76
2022/06/16 08:21:41;;;;;;;;;6.25;5.25;;;;;-146.67;26.12;74010.81;5081264;28;61803;-76
2022/06/16 08:24:06;;;;;;;;;6.50;5.50;;;;;-146.67;26.26;74012.81;5082329;27;61695;-77
2022/06/16 08:26:34;;;;;;;;;10.50;4.00;;;;;-146.67;26.35;74004.81;5081144;27;61991;-76
2022/06/16 08:28:59;;;;;;;;;6.50;4.00;;;;;-146.67;26.25;73984.84;5081998;28;62047;-76
2022/06/16 08:31:25;;;;;;;;;7.75;5.75;;;;;-146.67;25.96;73978.88;5080299;28;61999;-76
2022/06/16 08:33:52;;;;;;;;;4.75;4.00;;;;;-146.67;26.18;73980.88;5082092;27;61764;-76
2022/06/16 08:36:19;;;;;;;;;3.50;3.25;;;;;-146.67;26.08;73988.84;5081197;27;62667;-76
2022/06/16 08:38:45;;;;;;;;;4.75;4.75;;;;;-146.67;25.74;73972.88;5117343;27;62034;-76
2022/06/16 08:41:39;;;;;;;;;4.00;4.00;;;;;-146.67;25.66;73960.91;5085290;28;61836;-76
2022/06/16 08:44:24;;;;;;;;;6.00;5.75;;;;;-146.67;25.45;73956.91;5062393;28;61810;-76
2022/06/16 08:46:53;;;;;;;;;5.50;4.25;;;;;-146.67;25.59;73954.91;5060685;28;62742;-76
2022/06/16 08:49:30;;;;;;;;;3.00;3.00;;;;;-146.67;25.47;73938.94;5061693;28;62079;-76
2022/06/16 08:52:18;;;;;;;;;4.25;4.25;;;;;-146.67;25.51;73946.94;5061211;28;62030;-76
2022/06/16 08:54:58;;;;;;;;;4.25;2.50;;;;;-146.67;25.28;73932.97;5062047;28;62030;-76
2022/06/16 08:57:28;;;;;;;;;7.50;4.25;;;;;-146.67;25.45;73926.97;5061354;28;64182;-76
2022/06/16 09:00:05;;;;;;;;;5.00;5.00;;;;;-146.67;25.21;73913.00;5061777;28;61808;-76
2022/06/16 09:02:56;;;;;;;;;5.50;4.00;;;;;-146.67;24.82;73917.00;5061483;28;61864;-76
2022/06/16 09:06:07;;;;;;;;;4.00;4.00;;;;;-146.67;25.03;73918.97;5062226;28;61933;-76
2022/06/16 09:08:51;;;;;;;;;5.00;3.75;;;;;-146.67;25.14;73915.00;5020867;28;61784;-76
2022/06/16 09:11:32;;;;;;;;;3.50;3.50;;;;;-146.67;24.95;73926.97;5021412;28;61935;-76
2022/06/16 09:14:18;;;;;;;;;3.50;3.50;;;;;-146.67;24.94;73924.97;5021930;28;62086;-76
2022/06/16 09:17:08;;;;;;;;;4.00;4.00;;;;;-146.67;25.00;73907.00;5021157;28;62189;-76
2022/06/16 09:19:39;;;;;;;;;6.67;5.00;;;;;-146.67;24.68;73891.03;5021170;28;62856;-76
2022/06/16 09:22:51;;;;;;;;;6.33;3.33;;;;;-146.67;24.78;73881.06;5021562;28;62061;-76
2022/06/16 09:25:34;;;;;;;;;8.75;7.75;;;;;-146.67;24.75;73863.09;5021864;28;61905;-76
2022/06/16 09:28:09;;;;;;;;;4.00;4.00;;;;;-146.67;24.47;73863.09;5021430;28;61887;-76
2022/06/16 09:30:40;;;;;;;;;4.00;3.00;;;;;-146.67;24.63;73851.13;5020720;28;61783;-76
2022/06/16 09:33:38;;;;;;;;;5.50;5.50;;;;;-146.67;24.57;73853.13;5021474;28;61797;-76
2022/06/16 09:36:15;;;;;;;;;5.00;3.00;;;;;-146.67;24.31;73837.16;5021262;28;61965;-76
2022/06/16 09:38:47;;;;;;;;;6.00;4.50;;;;;-146.67;24.15;73823.16;5035647;28;61997;-76
2022/06/16 09:44:18;;;;;;;;;3.00;3.00;;;;;-146.67;24.35;73809.19;5084874;28;61882;-77
2022/06/16 09:46:50;;;;;;;;;4.67;3.00;;;;;-146.67;24.05;73803.22;5084004;27;62209;-76
2022/06/16 09:49:40;;;;;;;;;6.67;3.67;;;;;-146.67;24.42;73783.25;5084558;27;61750;-76
2022/06/16 09:52:52;;;;;;;;;3.00;3.00;;;;;-146.67;24.29;73763.28;5083423;28;61869;-77
2022/06/16 09:55:25;;;;;;;;;4.00;3.75;;;;;-146.67;24.01;73755.31;5061010;28;62087;-77
2022/06/16 09:57:57;;;;;;;;;3.00;3.00;;;;;-146.67;24.22;73745.31;5043977;28;61953;-76
2022/06/16 10:00:24;;;;;;;;;5.25;4.00;;;;;-146.67;24.00;73725.38;5044866;28;62186;-76
2022/06/16 10:02:54;;;;;;;;;8.50;4.00;;;;;-146.67;23.87;73715.38;5042790;28;64208;-76
2022/06/16 10:05:35;;;;;;;;;5.67;3.67;;;;;-146.67;23.84;73707.41;5060400;28;61814;-75
2022/06/16 10:08:23;;;;;;;;;4.67;4.67;;;;;-146.67;24.02;73699.41;5060596;28;61998;-75
2022/06/16 10:11:03;;;;;;;;;3.00;3.00;;;;;-146.67;23.46;73693.44;5060730;28;62349;-76
2022/06/16 10:13:40;;;;;;;;;5.00;4.00;;;;;-146.67;24.02;73681.44;5060603;28;65088;-76
2022/06/16 10:16:25;;;;;;;;;5.75;4.75;;;;;-146.67;23.74;73667.47;5060659;28;62123;-77
2022/06/16 10:18:51;;;;;;;;;3.67;3.67;;;;;-146.67;23.76;73659.50;5061087;28;61978;-76
2022/06/16 10:21:17;;;;;;;;;2.00;2.00;;;;;-146.67;23.33;73643.53;5060906;28;61865;-76
2022/06/16 10:23:58;;;;;;;;;3.00;3.00;;;;;-146.67;23.25;73667.47;5060361;28;61824;-78
2022/06/16 10:26:24;;;;;;;;;4.00;4.00;;;;;-146.67;23.17;73651.50;5060865;28;61880;-76
2022/06/16 10:29:13;;;;;;;;;4.33;4.00;;;;;-146.67;23.57;73637.53;5061043;28;61880;-76
2022/06/16 10:31:45;;;;;;;;;5.33;3.33;;;;;-146.67;23.03;73635.53;5062952;28;61903;-75
2022/06/16 10:34:27;;;;;;;;;5.00;3.33;;;;;-146.67;22.88;73629.56;5062948;28;62127;-78
2022/06/16 10:37:16;;;;;;;;;3.33;3.33;;;;;-146.67;23.06;73627.56;5063387;28;61901;-76
2022/06/16 10:39:49;;;;;;;;;2.67;2.67;;;;;-146.67;23.04;73611.59;5078701;28;61899;-76
2022/06/16 10:42:26;;;;;;;;;3.00;3.00;;;;;-146.67;22.98;73597.63;5078586;28;61773;-75
2022/06/16 10:45:00;;;;;;;;;3.00;3.00;;;;;-146.67;22.82;73579.66;5062428;28;62283;-78
2022/06/16 10:47:33;;;;;;;;;3.33;3.33;;;;;-146.67;22.94;73563.69;5062831;28;61922;-75
2022/06/16 10:50:01;;;;;;;;;6.00;4.00;;;;;-146.67;22.88;73537.75;5076944;28;62013;-75
2022/06/16 10:52:38;;;;;;;;;5.00;5.00;;;;;-146.67;22.33;73521.78;5083379;27;61811;-75
2022/06/16 10:55:12;;;;;;;;;6.00;3.33;;;;;-146.67;22.68;73517.78;5097899;27;65091;-78
2022/06/16 10:57:48;;;;;;;;;5.00;3.33;;;;;-146.67;22.56;73497.81;5083400;28;61695;-78
2022/06/16 11:00:17;;;;;;;;;2.67;2.67;;;;;-146.67;22.68;73485.84;5082535;27;61849;-77
2022/06/16 11:03:07;;;;;;;;;5.67;2.67;;;;;-146.67;22.54;73483.84;5081856;28;61959;-77
2022/06/16 11:05:59;;;;;;;;;4.67;4.67;;;;;-146.67;22.63;73487.84;5082447;27;61825;-77
2022/06/16 11:08:36;;;;;;;;;3.33;3.33;;;;;-146.67;22.86;73465.88;5076963;28;61960;-78
2022/06/16 11:11:03;;;;;;;;;6.67;4.67;;;;;-146.67;22.71;73447.91;5082900;27;61919;-78
2022/06/16 11:13:52;;;;;;;;;3.00;3.00;;;;;-146.67;22.45;73425.97;5083272;28;61690;-75
2022/06/16 11:16:31;;;;;;;;;5.67;4.33;;;;;-146.67;22.48;73410.00;5081497;27;62617;-78
2022/06/16 11:18:59;;;;;;;;;4.67;4.67;;;;;-146.67;22.46;73400.03;5098290;27;61803;-78
2022/06/16 11:21:29;;;;;;;;;4.33;4.00;;;;;-146.67;22.60;73392.03;5082514;27;61854;-77
2022/06/16 11:23:58;;;;;;;;;4.67;3.33;;;;;-146.67;22.25;73380.06;5080591;27;61869;-77
2022/06/16 11:26:27;;;;;;;;;4.33;3.33;;;;;-146.67;22.73;73374.06;5081528;28;61773;-77
2022/06/16 11:29:29;;;;;;;;;5.00;4.33;;;;;-146.67;22.20;73356.09;5082692;27;61985;-77
2022/06/16 11:32:06;;;;;;;;;3.33;3.33;;;;;-146.67;22.48;73356.09;5082357;27;62042;-78
2022/06/16 11:34:32;;;;;;;;;3.67;2.67;;;;;-146.67;22.26;73330.16;5083016;28;61822;-78
2022/06/16 11:37:12;;;;;;;;;3.67;3.67;;;;;-146.67;22.19;73308.22;5081998;27;62672;-78
2022/06/16 11:40:01;;;;;;;;;4.67;4.33;;;;;-146.67;22.38;73294.22;5081381;28;61988;-78
2022/06/16 11:42:45;;;;;;;;;3.00;3.00;;;;;-146.67;21.75;73254.31;5082657;28;61875;-78
2022/06/16 11:45:29;;;;;;;;;4.67;4.67;;;;;-146.67;21.42;73178.47;5081348;28;61893;-78
2022/06/16 11:48:18;;;;;;;;;5.00;4.33;;;;;-146.67;21.77;73060.72;5081837;28;62179;-77
2022/06/16 11:50:55;;;;;;;;;4.67;4.67;;;;;-146.67;21.39;72933.00;5082083;28;61814;-76
2022/06/16 11:53:33;;;;;;;;;4.00;4.00;;;;;-146.67;20.90;72817.25;5082409;28;61742;-78